sensor_id;sensor_type;location;lat;lon;timestamp;P1;durP1;ratioP1;P2;durP2;ratioP2
13309;SDS011;6723;48.256;16.402;2022-10-17T00:01:13;50.97;;;37.27;;
13309;SDS011;6723;48.256;16.402;2022-10-17T00:03:39;48.90;;;36.53;;
13309;SDS011;6723;48.256;16.402;2022-10-17T00:06:09;52.63;;;37.73;;
13309;SDS011;6723;48.256;16.402;2022-10-17T00:08:37;53.23;;;36.63;;
13309;SDS011;6723;48.256;16.402;2022-10-17T00:11:13;48.57;;;36.17;;
13309;SDS011;6723;48.256;16.402;2022-10-17T00:13:41;48.00;;;36.20;;
13309;SDS011;6723;48.256;16.402;2022-10-17T00:16:07;47.93;;;36.27;;
13309;SDS011;6723;48.256;16.402;2022-10-17T00:18:34;49.13;;;36.17;;
13309;SDS011;6723;48.256;16.402;2022-10-17T00:21:00;49.03;;;36.47;;
13309;SDS011;6723;48.256;16.402;2022-10-17T00:23:25;50.80;;;37.17;;
13309;SDS011;6723;48.256;16.402;2022-10-17T00:26:03;50.53;;;37.30;;
13309;SDS011;6723;48.256;16.402;2022-10-17T00:28:30;53.37;;;37.87;;
13309;SDS011;6723;48.256;16.402;2022-10-17T00:33:24;50.43;;;35.90;;
13309;SDS011;6723;48.256;16.402;2022-10-17T00:36:00;53.90;;;38.07;;
13309;SDS011;6723;48.256;16.402;2022-10-17T00:38:34;47.53;;;36.77;;
13309;SDS011;6723;48.256;16.402;2022-10-17T00:41:02;49.10;;;37.47;;
13309;SDS011;6723;48.256;16.402;2022-10-17T00:43:28;51.50;;;38.13;;
13309;SDS011;6723;48.256;16.402;2022-10-17T00:46:12;52.03;;;37.33;;
13309;SDS011;6723;48.256;16.402;2022-10-17T00:48:38;51.90;;;37.87;;
13309;SDS011;6723;48.256;16.402;2022-10-17T00:51:04;51.23;;;37.40;;
13309;SDS011;6723;48.256;16.402;2022-10-17T00:53:31;52.27;;;36.60;;
13309;SDS011;6723;48.256;16.402;2022-10-17T00:55:57;55.43;;;37.73;;
13309;SDS011;6723;48.256;16.402;2022-10-17T00:58:23;53.20;;;36.70;;
13309;SDS011;6723;48.256;16.402;2022-10-17T01:00:49;54.67;;;37.33;;
13309;SDS011;6723;48.256;16.402;2022-10-17T01:03:15;52.07;;;37.30;;
13309;SDS011;6723;48.256;16.402;2022-10-17T01:05:41;58.10;;;38.27;;
13309;SDS011;6723;48.256;16.402;2022-10-17T01:08:07;54.67;;;38.53;;
13309;SDS011;6723;48.256;16.402;2022-10-17T01:11:20;52.77;;;37.93;;
13309;SDS011;6723;48.256;16.402;2022-10-17T01:13:43;49.80;;;35.93;;
13309;SDS011;6723;48.256;16.402;2022-10-17T01:19:19;51.23;;;37.87;;
13309;SDS011;6723;48.256;16.402;2022-10-17T01:30:14;55.03;;;36.67;;
13309;SDS011;6723;48.256;16.402;2022-10-17T01:33:06;54.87;;;38.17;;
13309;SDS011;6723;48.256;16.402;2022-10-17T01:36:02;54.27;;;38.43;;
13309;SDS011;6723;48.256;16.402;2022-10-17T01:38:35;56.73;;;39.03;;
13309;SDS011;6723;48.256;16.402;2022-10-17T01:41:24;52.20;;;37.30;;
13309;SDS011;6723;48.256;16.402;2022-10-17T01:43:57;54.57;;;37.57;;
13309;SDS011;6723;48.256;16.402;2022-10-17T01:46:36;54.40;;;37.33;;
13309;SDS011;6723;48.256;16.402;2022-10-17T01:49:04;59.07;;;38.97;;
13309;SDS011;6723;48.256;16.402;2022-10-17T01:51:35;59.97;;;38.40;;
13309;SDS011;6723;48.256;16.402;2022-10-17T01:56:42;56.57;;;37.57;;
13309;SDS011;6723;48.256;16.402;2022-10-17T01:59:11;54.87;;;38.03;;
13309;SDS011;6723;48.256;16.402;2022-10-17T02:01:42;54.87;;;38.30;;
13309;SDS011;6723;48.256;16.402;2022-10-17T02:04:09;53.17;;;37.63;;
13309;SDS011;6723;48.256;16.402;2022-10-17T02:06:36;52.57;;;37.63;;
13309;SDS011;6723;48.256;16.402;2022-10-17T02:09:19;58.23;;;37.87;;
13309;SDS011;6723;48.256;16.402;2022-10-17T02:22:54;59.43;;;39.97;;
13309;SDS011;6723;48.256;16.402;2022-10-17T02:30:48;58.37;;;38.77;;
13309;SDS011;6723;48.256;16.402;2022-10-17T02:33:24;54.67;;;38.43;;
13309;SDS011;6723;48.256;16.402;2022-10-17T02:35:57;55.47;;;38.13;;
13309;SDS011;6723;48.256;16.402;2022-10-17T02:38:27;56.03;;;37.80;;
13309;SDS011;6723;48.256;16.402;2022-10-17T02:40:54;59.13;;;39.87;;
13309;SDS011;6723;48.256;16.402;2022-10-17T02:43:20;59.70;;;39.23;;
13309;SDS011;6723;48.256;16.402;2022-10-17T02:45:47;52.73;;;37.30;;
13309;SDS011;6723;48.256;16.402;2022-10-17T02:51:03;57.73;;;37.70;;
13309;SDS011;6723;48.256;16.402;2022-10-17T02:53:38;54.73;;;36.17;;
13309;SDS011;6723;48.256;16.402;2022-10-17T02:56:19;49.97;;;35.63;;
13309;SDS011;6723;48.256;16.402;2022-10-17T02:58:47;55.33;;;36.00;;
13309;SDS011;6723;48.256;16.402;2022-10-17T03:01:15;56.97;;;37.33;;
13309;SDS011;6723;48.256;16.402;2022-10-17T03:03:43;55.53;;;37.30;;
13309;SDS011;6723;48.256;16.402;2022-10-17T03:06:09;55.27;;;37.33;;
13309;SDS011;6723;48.256;16.402;2022-10-17T03:08:34;52.27;;;36.30;;
13309;SDS011;6723;48.256;16.402;2022-10-17T03:11:00;52.80;;;37.03;;
13309;SDS011;6723;48.256;16.402;2022-10-17T03:13:27;50.83;;;35.60;;
13309;SDS011;6723;48.256;16.402;2022-10-17T03:15:54;55.23;;;37.87;;
13309;SDS011;6723;48.256;16.402;2022-10-17T03:18:21;55.87;;;36.57;;
13309;SDS011;6723;48.256;16.402;2022-10-17T03:20:47;51.70;;;35.87;;
13309;SDS011;6723;48.256;16.402;2022-10-17T03:23:13;52.50;;;35.47;;
13309;SDS011;6723;48.256;16.402;2022-10-17T03:25:39;55.87;;;36.07;;
13309;SDS011;6723;48.256;16.402;2022-10-17T03:28:04;55.93;;;37.60;;
13309;SDS011;6723;48.256;16.402;2022-10-17T03:30:30;52.23;;;36.23;;
13309;SDS011;6723;48.256;16.402;2022-10-17T03:32:56;51.53;;;35.27;;
13309;SDS011;6723;48.256;16.402;2022-10-17T03:35:23;49.53;;;34.50;;
13309;SDS011;6723;48.256;16.402;2022-10-17T03:37:49;58.07;;;35.63;;
13309;SDS011;6723;48.256;16.402;2022-10-17T03:40:15;48.67;;;34.70;;
13309;SDS011;6723;48.256;16.402;2022-10-17T03:42:41;50.83;;;35.37;;
13309;SDS011;6723;48.256;16.402;2022-10-17T03:45:07;49.23;;;34.07;;
13309;SDS011;6723;48.256;16.402;2022-10-17T03:47:33;48.40;;;33.67;;
13309;SDS011;6723;48.256;16.402;2022-10-17T03:49:59;48.53;;;33.57;;
13309;SDS011;6723;48.256;16.402;2022-10-17T03:52:24;47.60;;;33.80;;
13309;SDS011;6723;48.256;16.402;2022-10-17T03:54:50;49.20;;;33.33;;
13309;SDS011;6723;48.256;16.402;2022-10-17T03:57:17;56.57;;;34.63;;
13309;SDS011;6723;48.256;16.402;2022-10-17T03:59:43;51.33;;;34.87;;
13309;SDS011;6723;48.256;16.402;2022-10-17T04:02:09;52.30;;;35.33;;
13309;SDS011;6723;48.256;16.402;2022-10-17T04:04:43;52.97;;;34.33;;
13309;SDS011;6723;48.256;16.402;2022-10-17T04:07:09;51.70;;;34.47;;
13309;SDS011;6723;48.256;16.402;2022-10-17T04:09:34;47.70;;;34.13;;
13309;SDS011;6723;48.256;16.402;2022-10-17T04:12:00;53.03;;;35.23;;
13309;SDS011;6723;48.256;16.402;2022-10-17T04:14:26;54.40;;;35.07;;
13309;SDS011;6723;48.256;16.402;2022-10-17T04:16:52;53.10;;;36.03;;
13309;SDS011;6723;48.256;16.402;2022-10-17T04:19:17;54.10;;;36.50;;
13309;SDS011;6723;48.256;16.402;2022-10-17T04:21:43;59.03;;;36.90;;
13309;SDS011;6723;48.256;16.402;2022-10-17T04:24:09;55.13;;;37.67;;
13309;SDS011;6723;48.256;16.402;2022-10-17T04:26:36;60.90;;;38.03;;
13309;SDS011;6723;48.256;16.402;2022-10-17T04:29:01;57.53;;;37.97;;
13309;SDS011;6723;48.256;16.402;2022-10-17T04:31:27;57.70;;;37.13;;
13309;SDS011;6723;48.256;16.402;2022-10-17T04:33:53;60.43;;;39.40;;
13309;SDS011;6723;48.256;16.402;2022-10-17T04:36:19;57.90;;;36.63;;
13309;SDS011;6723;48.256;16.402;2022-10-17T04:38:47;61.53;;;38.03;;
13309;SDS011;6723;48.256;16.402;2022-10-17T04:41:14;56.50;;;37.77;;
13309;SDS011;6723;48.256;16.402;2022-10-17T04:43:41;55.77;;;37.63;;
13309;SDS011;6723;48.256;16.402;2022-10-17T04:46:10;63.13;;;36.97;;
13309;SDS011;6723;48.256;16.402;2022-10-17T04:48:37;55.30;;;37.80;;
13309;SDS011;6723;48.256;16.402;2022-10-17T04:51:08;58.43;;;37.67;;
13309;SDS011;6723;48.256;16.402;2022-10-17T04:53:38;55.57;;;37.50;;
13309;SDS011;6723;48.256;16.402;2022-10-17T04:56:15;56.73;;;37.60;;
13309;SDS011;6723;48.256;16.402;2022-10-17T04:58:43;56.60;;;36.37;;
13309;SDS011;6723;48.256;16.402;2022-10-17T05:01:10;55.53;;;35.67;;
13309;SDS011;6723;48.256;16.402;2022-10-17T05:03:38;50.30;;;34.40;;
13309;SDS011;6723;48.256;16.402;2022-10-17T05:06:08;53.20;;;33.60;;
13309;SDS011;6723;48.256;16.402;2022-10-17T05:08:37;48.93;;;33.43;;
13309;SDS011;6723;48.256;16.402;2022-10-17T05:11:04;50.50;;;33.63;;
13309;SDS011;6723;48.256;16.402;2022-10-17T05:13:38;53.40;;;35.83;;
13309;SDS011;6723;48.256;16.402;2022-10-17T05:16:04;49.83;;;33.93;;
13309;SDS011;6723;48.256;16.402;2022-10-17T05:18:30;49.90;;;34.23;;
13309;SDS011;6723;48.256;16.402;2022-10-17T05:20:56;48.70;;;33.53;;
13309;SDS011;6723;48.256;16.402;2022-10-17T05:23:21;51.37;;;34.03;;
13309;SDS011;6723;48.256;16.402;2022-10-17T05:25:52;48.23;;;33.73;;
13309;SDS011;6723;48.256;16.402;2022-10-17T05:28:19;47.87;;;32.97;;
13309;SDS011;6723;48.256;16.402;2022-10-17T05:30:45;46.00;;;31.47;;
13309;SDS011;6723;48.256;16.402;2022-10-17T05:33:11;45.43;;;31.57;;
13309;SDS011;6723;48.256;16.402;2022-10-17T05:35:37;43.40;;;30.10;;
13309;SDS011;6723;48.256;16.402;2022-10-17T05:38:03;40.80;;;28.40;;
13309;SDS011;6723;48.256;16.402;2022-10-17T05:40:29;43.10;;;27.93;;
13309;SDS011;6723;48.256;16.402;2022-10-17T05:42:54;38.33;;;28.33;;
13309;SDS011;6723;48.256;16.402;2022-10-17T05:45:20;40.93;;;27.70;;
13309;SDS011;6723;48.256;16.402;2022-10-17T05:47:46;43.77;;;28.53;;
13309;SDS011;6723;48.256;16.402;2022-10-17T05:50:12;44.57;;;29.47;;
13309;SDS011;6723;48.256;16.402;2022-10-17T05:52:38;44.87;;;29.73;;
13309;SDS011;6723;48.256;16.402;2022-10-17T05:55:04;41.70;;;29.57;;
13309;SDS011;6723;48.256;16.402;2022-10-17T05:57:31;36.93;;;27.70;;
13309;SDS011;6723;48.256;16.402;2022-10-17T05:59:56;35.83;;;26.63;;
13309;SDS011;6723;48.256;16.402;2022-10-17T06:02:22;37.83;;;26.30;;
13309;SDS011;6723;48.256;16.402;2022-10-17T06:04:48;33.83;;;26.30;;
13309;SDS011;6723;48.256;16.402;2022-10-17T06:07:15;33.77;;;24.20;;
13309;SDS011;6723;48.256;16.402;2022-10-17T06:09:41;33.27;;;24.77;;
13309;SDS011;6723;48.256;16.402;2022-10-17T06:12:07;33.03;;;24.00;;
13309;SDS011;6723;48.256;16.402;2022-10-17T06:14:33;38.73;;;26.83;;
13309;SDS011;6723;48.256;16.402;2022-10-17T06:16:59;38.93;;;25.87;;
13309;SDS011;6723;48.256;16.402;2022-10-17T06:19:25;35.40;;;27.03;;
13309;SDS011;6723;48.256;16.402;2022-10-17T06:21:51;31.50;;;24.17;;
13309;SDS011;6723;48.256;16.402;2022-10-17T06:24:17;32.47;;;22.87;;
13309;SDS011;6723;48.256;16.402;2022-10-17T06:26:42;30.07;;;22.07;;
13309;SDS011;6723;48.256;16.402;2022-10-17T06:29:08;31.27;;;20.93;;
13309;SDS011;6723;48.256;16.402;2022-10-17T06:31:34;29.03;;;19.90;;
13309;SDS011;6723;48.256;16.402;2022-10-17T06:34:00;36.80;;;21.50;;
13309;SDS011;6723;48.256;16.402;2022-10-17T06:36:26;26.00;;;20.77;;
13309;SDS011;6723;48.256;16.402;2022-10-17T06:38:52;28.47;;;19.50;;
13309;SDS011;6723;48.256;16.402;2022-10-17T06:41:17;27.57;;;19.03;;
13309;SDS011;6723;48.256;16.402;2022-10-17T06:43:44;30.77;;;18.43;;
13309;SDS011;6723;48.256;16.402;2022-10-17T06:46:11;25.77;;;17.70;;
13309;SDS011;6723;48.256;16.402;2022-10-17T06:48:38;24.63;;;16.57;;
13309;SDS011;6723;48.256;16.402;2022-10-17T06:51:04;22.23;;;15.80;;
13309;SDS011;6723;48.256;16.402;2022-10-17T06:53:34;24.30;;;15.33;;
13309;SDS011;6723;48.256;16.402;2022-10-17T06:56:00;18.77;;;15.20;;
13309;SDS011;6723;48.256;16.402;2022-10-17T06:58:29;19.53;;;15.93;;
13309;SDS011;6723;48.256;16.402;2022-10-17T07:01:00;21.00;;;16.30;;
13309;SDS011;6723;48.256;16.402;2022-10-17T07:03:27;22.50;;;16.23;;
13309;SDS011;6723;48.256;16.402;2022-10-17T07:05:53;19.77;;;16.27;;
13309;SDS011;6723;48.256;16.402;2022-10-17T07:08:20;22.50;;;16.17;;
13309;SDS011;6723;48.256;16.402;2022-10-17T07:10:46;20.73;;;16.73;;
13309;SDS011;6723;48.256;16.402;2022-10-17T07:13:12;20.33;;;16.27;;
13309;SDS011;6723;48.256;16.402;2022-10-17T07:15:39;21.93;;;16.27;;
13309;SDS011;6723;48.256;16.402;2022-10-17T07:18:06;20.27;;;16.53;;
13309;SDS011;6723;48.256;16.402;2022-10-17T07:20:32;25.40;;;17.50;;
13309;SDS011;6723;48.256;16.402;2022-10-17T07:22:58;22.63;;;17.03;;
13309;SDS011;6723;48.256;16.402;2022-10-17T07:25:24;20.50;;;17.47;;
13309;SDS011;6723;48.256;16.402;2022-10-17T07:27:50;23.47;;;17.27;;
13309;SDS011;6723;48.256;16.402;2022-10-17T07:30:17;22.17;;;17.83;;
13309;SDS011;6723;48.256;16.402;2022-10-17T07:32:43;24.63;;;17.80;;
13309;SDS011;6723;48.256;16.402;2022-10-17T07:35:10;20.80;;;17.23;;
13309;SDS011;6723;48.256;16.402;2022-10-17T07:37:37;23.03;;;17.93;;
13309;SDS011;6723;48.256;16.402;2022-10-17T07:40:04;24.30;;;18.20;;
13309;SDS011;6723;48.256;16.402;2022-10-17T07:42:32;24.03;;;19.17;;
13309;SDS011;6723;48.256;16.402;2022-10-17T07:45:00;21.97;;;18.13;;
13309;SDS011;6723;48.256;16.402;2022-10-17T07:47:27;25.20;;;18.73;;
13309;SDS011;6723;48.256;16.402;2022-10-17T07:49:55;25.83;;;19.57;;
13309;SDS011;6723;48.256;16.402;2022-10-17T07:52:21;23.90;;;18.47;;
13309;SDS011;6723;48.256;16.402;2022-10-17T07:54:47;23.43;;;18.40;;
13309;SDS011;6723;48.256;16.402;2022-10-17T07:57:13;24.33;;;18.67;;
13309;SDS011;6723;48.256;16.402;2022-10-17T07:59:39;22.00;;;17.93;;
13309;SDS011;6723;48.256;16.402;2022-10-17T08:02:05;24.80;;;19.53;;
13309;SDS011;6723;48.256;16.402;2022-10-17T08:04:32;25.53;;;19.30;;
13309;SDS011;6723;48.256;16.402;2022-10-17T08:06:59;23.50;;;18.57;;
13309;SDS011;6723;48.256;16.402;2022-10-17T08:09:25;24.40;;;19.23;;
13309;SDS011;6723;48.256;16.402;2022-10-17T08:11:50;27.87;;;19.23;;
13309;SDS011;6723;48.256;16.402;2022-10-17T08:14:17;25.73;;;19.33;;
13309;SDS011;6723;48.256;16.402;2022-10-17T08:16:42;26.30;;;20.73;;
13309;SDS011;6723;48.256;16.402;2022-10-17T08:19:08;25.17;;;20.63;;
13309;SDS011;6723;48.256;16.402;2022-10-17T08:21:35;27.53;;;21.37;;
13309;SDS011;6723;48.256;16.402;2022-10-17T08:24:03;24.50;;;20.10;;
13309;SDS011;6723;48.256;16.402;2022-10-17T08:26:29;23.70;;;19.93;;
13309;SDS011;6723;48.256;16.402;2022-10-17T08:28:55;23.57;;;20.00;;
13309;SDS011;6723;48.256;16.402;2022-10-17T08:31:21;28.70;;;20.90;;
13309;SDS011;6723;48.256;16.402;2022-10-17T08:33:47;23.97;;;21.33;;
13309;SDS011;6723;48.256;16.402;2022-10-17T08:36:16;26.83;;;21.50;;
13309;SDS011;6723;48.256;16.402;2022-10-17T08:38:42;26.13;;;21.40;;
13309;SDS011;6723;48.256;16.402;2022-10-17T08:41:14;23.40;;;20.80;;
13309;SDS011;6723;48.256;16.402;2022-10-17T08:43:57;25.23;;;20.70;;
13309;SDS011;6723;48.256;16.402;2022-10-17T08:46:37;24.47;;;20.33;;
13309;SDS011;6723;48.256;16.402;2022-10-17T08:49:08;27.10;;;21.23;;
13309;SDS011;6723;48.256;16.402;2022-10-17T08:51:44;28.53;;;21.20;;
13309;SDS011;6723;48.256;16.402;2022-10-17T08:54:53;26.23;;;20.20;;
13309;SDS011;6723;48.256;16.402;2022-10-17T08:57:13;26.07;;;20.10;;
13309;SDS011;6723;48.256;16.402;2022-10-17T08:59:41;24.77;;;19.57;;
13309;SDS011;6723;48.256;16.402;2022-10-17T09:05:07;27.10;;;21.27;;
13309;SDS011;6723;48.256;16.402;2022-10-17T09:13:29;24.43;;;19.33;;
13309;SDS011;6723;48.256;16.402;2022-10-17T09:16:48;25.30;;;20.47;;
13309;SDS011;6723;48.256;16.402;2022-10-17T09:19:09;25.97;;;20.97;;
13309;SDS011;6723;48.256;16.402;2022-10-17T09:21:53;23.97;;;19.87;;
13309;SDS011;6723;48.256;16.402;2022-10-17T09:24:45;22.30;;;19.13;;
13309;SDS011;6723;48.256;16.402;2022-10-17T09:27:24;25.33;;;20.73;;
13309;SDS011;6723;48.256;16.402;2022-10-17T09:30:19;28.10;;;20.77;;
13309;SDS011;6723;48.256;16.402;2022-10-17T09:32:50;23.90;;;20.03;;
13309;SDS011;6723;48.256;16.402;2022-10-17T09:35:15;22.20;;;19.83;;
13309;SDS011;6723;48.256;16.402;2022-10-17T09:37:42;23.40;;;20.47;;
13309;SDS011;6723;48.256;16.402;2022-10-17T09:40:16;21.80;;;19.43;;
13309;SDS011;6723;48.256;16.402;2022-10-17T09:42:48;22.63;;;20.20;;
13309;SDS011;6723;48.256;16.402;2022-10-17T09:45:16;22.37;;;19.03;;
13309;SDS011;6723;48.256;16.402;2022-10-17T09:48:13;21.27;;;19.07;;
13309;SDS011;6723;48.256;16.402;2022-10-17T09:50:50;24.13;;;18.73;;
13309;SDS011;6723;48.256;16.402;2022-10-17T09:53:25;23.63;;;19.20;;
13309;SDS011;6723;48.256;16.402;2022-10-17T09:56:00;20.93;;;18.50;;
13309;SDS011;6723;48.256;16.402;2022-10-17T09:58:44;19.53;;;17.50;;
13309;SDS011;6723;48.256;16.402;2022-10-17T10:01:19;22.80;;;17.97;;
13309;SDS011;6723;48.256;16.402;2022-10-17T10:04:14;20.77;;;17.00;;
13309;SDS011;6723;48.256;16.402;2022-10-17T10:07:01;20.80;;;18.23;;
13309;SDS011;6723;48.256;16.402;2022-10-17T10:09:31;23.53;;;19.10;;
13309;SDS011;6723;48.256;16.402;2022-10-17T10:12:00;20.20;;;18.20;;
13309;SDS011;6723;48.256;16.402;2022-10-17T10:14:32;19.77;;;17.77;;
13309;SDS011;6723;48.256;16.402;2022-10-17T10:17:01;20.10;;;17.50;;
13309;SDS011;6723;48.256;16.402;2022-10-17T10:19:36;21.90;;;16.93;;
13309;SDS011;6723;48.256;16.402;2022-10-17T10:22:14;19.37;;;17.33;;
13309;SDS011;6723;48.256;16.402;2022-10-17T10:24:42;19.70;;;17.70;;
13309;SDS011;6723;48.256;16.402;2022-10-17T10:27:11;21.15;;;16.58;;
13309;SDS011;6723;48.256;16.402;2022-10-17T10:29:47;19.87;;;16.90;;
13309;SDS011;6723;48.256;16.402;2022-10-17T10:37:39;18.40;;;16.50;;
13309;SDS011;6723;48.256;16.402;2022-10-17T10:40:19;21.67;;;16.73;;
13309;SDS011;6723;48.256;16.402;2022-10-17T10:42:52;18.83;;;15.57;;
13309;SDS011;6723;48.256;16.402;2022-10-17T10:45:23;17.30;;;15.50;;
13309;SDS011;6723;48.256;16.402;2022-10-17T10:55:54;19.97;;;16.20;;
13309;SDS011;6723;48.256;16.402;2022-10-17T11:01:22;18.00;;;16.10;;
13309;SDS011;6723;48.256;16.402;2022-10-17T11:07:25;19.80;;;16.33;;
13309;SDS011;6723;48.256;16.402;2022-10-17T11:13:29;17.53;;;15.57;;
13309;SDS011;6723;48.256;16.402;2022-10-17T11:16:24;17.27;;;15.53;;
13309;SDS011;6723;48.256;16.402;2022-10-17T11:19:17;18.57;;;16.00;;
13309;SDS011;6723;48.256;16.402;2022-10-17T11:21:47;17.87;;;15.83;;
13309;SDS011;6723;48.256;16.402;2022-10-17T11:27:06;17.17;;;15.40;;
13309;SDS011;6723;48.256;16.402;2022-10-17T11:29:33;19.47;;;16.43;;
13309;SDS011;6723;48.256;16.402;2022-10-17T11:34:38;18.07;;;15.97;;
13309;SDS011;6723;48.256;16.402;2022-10-17T11:37:13;19.23;;;15.50;;
13309;SDS011;6723;48.256;16.402;2022-10-17T11:39:48;19.87;;;16.57;;
13309;SDS011;6723;48.256;16.402;2022-10-17T11:42:24;18.67;;;16.17;;
13309;SDS011;6723;48.256;16.402;2022-10-17T11:45:02;16.67;;;14.77;;
13309;SDS011;6723;48.256;16.402;2022-10-17T11:47:44;20.70;;;15.20;;
13309;SDS011;6723;48.256;16.402;2022-10-17T11:50:33;18.40;;;15.37;;
13309;SDS011;6723;48.256;16.402;2022-10-17T11:53:05;19.37;;;15.53;;
13309;SDS011;6723;48.256;16.402;2022-10-17T11:55:37;17.03;;;14.63;;
13309;SDS011;6723;48.256;16.402;2022-10-17T12:13:48;16.67;;;14.93;;
13309;SDS011;6723;48.256;16.402;2022-10-17T12:18:44;17.63;;;15.53;;
13309;SDS011;6723;48.256;16.402;2022-10-17T12:21:15;16.77;;;14.53;;
13309;SDS011;6723;48.256;16.402;2022-10-17T12:23:42;18.10;;;15.30;;
13309;SDS011;6723;48.256;16.402;2022-10-17T12:26:24;18.17;;;14.80;;
13309;SDS011;6723;48.256;16.402;2022-10-17T12:28:51;18.07;;;14.73;;
13309;SDS011;6723;48.256;16.402;2022-10-17T12:33:49;23.03;;;15.40;;
13309;SDS011;6723;48.256;16.402;2022-10-17T12:49:28;19.53;;;14.93;;
13309;SDS011;6723;48.256;16.402;2022-10-17T12:59:56;15.17;;;12.73;;
13309;SDS011;6723;48.256;16.402;2022-10-17T13:02:24;16.23;;;13.53;;
13309;SDS011;6723;48.256;16.402;2022-10-17T13:04:55;14.23;;;12.43;;
13309;SDS011;6723;48.256;16.402;2022-10-17T13:07:35;17.67;;;13.07;;
13309;SDS011;6723;48.256;16.402;2022-10-17T13:10:05;19.13;;;12.80;;
13309;SDS011;6723;48.256;16.402;2022-10-17T13:12:33;19.47;;;12.93;;
13309;SDS011;6723;48.256;16.402;2022-10-17T13:15:02;18.33;;;13.60;;
13309;SDS011;6723;48.256;16.402;2022-10-17T13:17:31;19.37;;;13.93;;
13309;SDS011;6723;48.256;16.402;2022-10-17T13:19:59;21.40;;;13.83;;
13309;SDS011;6723;48.256;16.402;2022-10-17T13:22:28;17.77;;;13.90;;
13309;SDS011;6723;48.256;16.402;2022-10-17T13:25:05;14.47;;;12.27;;
13309;SDS011;6723;48.256;16.402;2022-10-17T13:27:42;16.03;;;12.57;;
13309;SDS011;6723;48.256;16.402;2022-10-17T13:30:27;18.80;;;12.47;;
13309;SDS011;6723;48.256;16.402;2022-10-17T13:32:59;18.40;;;12.57;;
13309;SDS011;6723;48.256;16.402;2022-10-17T13:35:27;19.70;;;13.67;;
13309;SDS011;6723;48.256;16.402;2022-10-17T13:37:56;17.80;;;13.03;;
13309;SDS011;6723;48.256;16.402;2022-10-17T13:40:25;14.77;;;12.93;;
13309;SDS011;6723;48.256;16.402;2022-10-17T13:42:53;19.57;;;13.07;;
13309;SDS011;6723;48.256;16.402;2022-10-17T13:45:27;14.87;;;13.37;;
13309;SDS011;6723;48.256;16.402;2022-10-17T13:47:56;20.43;;;12.40;;
13309;SDS011;6723;48.256;16.402;2022-10-17T13:50:32;22.33;;;13.70;;
13309;SDS011;6723;48.256;16.402;2022-10-17T13:53:14;15.40;;;12.73;;
13309;SDS011;6723;48.256;16.402;2022-10-17T13:55:50;14.87;;;12.83;;
13309;SDS011;6723;48.256;16.402;2022-10-17T13:58:18;17.10;;;12.23;;
13309;SDS011;6723;48.256;16.402;2022-10-17T14:00:44;18.40;;;13.47;;
13309;SDS011;6723;48.256;16.402;2022-10-17T14:03:10;17.03;;;13.20;;
13309;SDS011;6723;48.256;16.402;2022-10-17T14:08:37;18.53;;;14.00;;
13309;SDS011;6723;48.256;16.402;2022-10-17T14:14:13;16.03;;;13.50;;
13309;SDS011;6723;48.256;16.402;2022-10-17T14:16:46;15.70;;;13.03;;
13309;SDS011;6723;48.256;16.402;2022-10-17T14:22:13;15.00;;;13.40;;
13309;SDS011;6723;48.256;16.402;2022-10-17T14:24:51;14.90;;;12.90;;
13309;SDS011;6723;48.256;16.402;2022-10-17T14:29:56;19.70;;;13.10;;
13309;SDS011;6723;48.256;16.402;2022-10-17T14:32:28;16.47;;;13.10;;
13309;SDS011;6723;48.256;16.402;2022-10-17T14:34:57;17.30;;;12.37;;
13309;SDS011;6723;48.256;16.402;2022-10-17T14:40:13;14.20;;;12.60;;
13309;SDS011;6723;48.256;16.402;2022-10-17T14:42:44;15.03;;;12.07;;
13309;SDS011;6723;48.256;16.402;2022-10-17T14:45:13;13.80;;;11.67;;
13309;SDS011;6723;48.256;16.402;2022-10-17T14:47:48;15.43;;;11.87;;
13309;SDS011;6723;48.256;16.402;2022-10-17T14:50:25;14.80;;;11.70;;
13309;SDS011;6723;48.256;16.402;2022-10-17T14:53:00;14.73;;;12.10;;
13309;SDS011;6723;48.256;16.402;2022-10-17T14:55:28;12.80;;;11.13;;
13309;SDS011;6723;48.256;16.402;2022-10-17T14:57:55;13.30;;;11.47;;
13309;SDS011;6723;48.256;16.402;2022-10-17T15:00:21;12.87;;;11.23;;
13309;SDS011;6723;48.256;16.402;2022-10-17T15:02:47;13.43;;;11.03;;
13309;SDS011;6723;48.256;16.402;2022-10-17T15:05:14;15.60;;;10.17;;
13309;SDS011;6723;48.256;16.402;2022-10-17T15:07:41;13.77;;;10.63;;
13309;SDS011;6723;48.256;16.402;2022-10-17T15:13:13;16.83;;;9.80;;
13309;SDS011;6723;48.256;16.402;2022-10-17T15:15:40;13.23;;;10.17;;
13309;SDS011;6723;48.256;16.402;2022-10-17T15:18:09;13.17;;;10.27;;
13309;SDS011;6723;48.256;16.402;2022-10-17T15:20:36;13.50;;;9.43;;
13309;SDS011;6723;48.256;16.402;2022-10-17T15:23:03;13.43;;;10.10;;
13309;SDS011;6723;48.256;16.402;2022-10-17T15:25:29;11.90;;;9.13;;
13309;SDS011;6723;48.256;16.402;2022-10-17T15:27:56;10.83;;;9.03;;
13309;SDS011;6723;48.256;16.402;2022-10-17T15:30:27;11.00;;;9.03;;
13309;SDS011;6723;48.256;16.402;2022-10-17T15:32:57;9.87;;;8.87;;
13309;SDS011;6723;48.256;16.402;2022-10-17T15:35:23;10.87;;;8.57;;
13309;SDS011;6723;48.256;16.402;2022-10-17T15:37:50;14.40;;;9.50;;
13309;SDS011;6723;48.256;16.402;2022-10-17T15:40:24;11.07;;;9.07;;
13309;SDS011;6723;48.256;16.402;2022-10-17T15:42:55;10.97;;;8.50;;
13309;SDS011;6723;48.256;16.402;2022-10-17T15:45:21;10.03;;;8.80;;
13309;SDS011;6723;48.256;16.402;2022-10-17T15:47:49;10.83;;;8.73;;
13309;SDS011;6723;48.256;16.402;2022-10-17T15:50:17;9.83;;;8.77;;
13309;SDS011;6723;48.256;16.402;2022-10-17T15:52:43;12.73;;;8.20;;
13309;SDS011;6723;48.256;16.402;2022-10-17T15:55:11;9.53;;;7.97;;
13309;SDS011;6723;48.256;16.402;2022-10-17T15:57:37;10.97;;;7.93;;
13309;SDS011;6723;48.256;16.402;2022-10-17T16:00:07;11.60;;;8.47;;
13309;SDS011;6723;48.256;16.402;2022-10-17T16:02:41;10.07;;;7.77;;
13309;SDS011;6723;48.256;16.402;2022-10-17T16:05:18;11.03;;;8.00;;
13309;SDS011;6723;48.256;16.402;2022-10-17T16:07:53;9.07;;;7.53;;
13309;SDS011;6723;48.256;16.402;2022-10-17T16:10:20;9.30;;;7.67;;
13309;SDS011;6723;48.256;16.402;2022-10-17T16:12:46;11.03;;;8.07;;
13309;SDS011;6723;48.256;16.402;2022-10-17T16:17:42;9.83;;;7.80;;
13309;SDS011;6723;48.256;16.402;2022-10-17T16:20:09;13.77;;;7.93;;
13309;SDS011;6723;48.256;16.402;2022-10-17T16:22:37;11.77;;;8.70;;
13309;SDS011;6723;48.256;16.402;2022-10-17T16:25:07;37.73;;;19.47;;
13309;SDS011;6723;48.256;16.402;2022-10-17T16:27:54;23.53;;;15.37;;
13309;SDS011;6723;48.256;16.402;2022-10-17T16:30:23;10.97;;;7.50;;
13309;SDS011;6723;48.256;16.402;2022-10-17T16:32:50;10.77;;;7.73;;
13309;SDS011;6723;48.256;16.402;2022-10-17T16:35:21;9.77;;;7.43;;
13309;SDS011;6723;48.256;16.402;2022-10-17T16:37:49;8.73;;;7.53;;
13309;SDS011;6723;48.256;16.402;2022-10-17T16:40:15;11.07;;;7.40;;
13309;SDS011;6723;48.256;16.402;2022-10-17T16:42:42;11.37;;;7.27;;
13309;SDS011;6723;48.256;16.402;2022-10-17T16:45:09;9.97;;;7.47;;
13309;SDS011;6723;48.256;16.402;2022-10-17T16:47:43;11.37;;;7.70;;
13309;SDS011;6723;48.256;16.402;2022-10-17T16:50:09;9.97;;;7.57;;
13309;SDS011;6723;48.256;16.402;2022-10-17T16:52:34;8.00;;;6.63;;
13309;SDS011;6723;48.256;16.402;2022-10-17T16:55:00;9.53;;;7.10;;